Time;durP1;ratioP1;P1;durP2;ratioP2;P2;SDS_P1;SDS_P2;PMS_P1;PMS_P2;Temp;Humidity;BMP_temperature;BMP_pressure;BME280_temperature;BME280_humidity;BME280_pressure;Samples;Min_cycle;Max_cycle;Signal;HPM_P1;HPM_P2
2022/04/17 00:00:52;;;;;;;3.10;2.40;;;10.90;36.20;;;;;;4982920;28;20406;-43
2022/04/17 00:03:21;;;;;;;3.53;2.25;;;10.80;36.20;;;;;;4980208;28;20414;-43
2022/04/17 00:05:50;;;;;;;3.72;2.22;;;10.80;36.20;;;;;;4980914;28;20046;-44
2022/04/17 00:08:18;;;;;;;6.10;2.72;;;10.80;36.80;;;;;;4982217;28;20486;-45
2022/04/17 00:10:46;;;;;;;4.03;2.47;;;10.80;36.40;;;;;;4981869;28;20050;-46
2022/04/17 00:13:15;;;;;;;4.05;2.17;;;10.70;36.40;;;;;;4978554;28;20065;-47
2022/04/17 00:15:43;;;;;;;3.75;2.50;;;10.70;36.50;;;;;;4981905;28;20058;-46
2022/04/17 00:18:11;;;;;;;3.40;2.10;;;10.70;36.60;;;;;;4982389;28;20061;-44
2022/04/17 00:20:39;;;;;;;2.72;1.95;;;10.60;36.60;;;;;;4983141;28;20430;-44
2022/04/17 00:23:06;;;;;;;5.05;2.90;;;10.60;36.70;;;;;;4978905;28;20456;-44
2022/04/17 00:25:35;;;;;;;4.38;2.35;;;10.60;36.80;;;;;;4979321;28;20057;-44
2022/04/17 00:28:04;;;;;;;4.63;2.42;;;10.50;36.80;;;;;;4980223;28;20517;-45
2022/04/17 00:30:32;;;;;;;3.80;2.67;;;10.50;36.90;;;;;;4981683;28;20054;-44
2022/04/17 00:32:59;;;;;;;8.38;2.65;;;10.40;36.90;;;;;;4977874;28;20054;-47
2022/04/17 00:35:27;;;;;;;8.40;3.13;;;10.40;37.00;;;;;;4981189;28;20050;-44
2022/04/17 00:37:55;;;;;;;5.22;3.05;;;10.30;37.10;;;;;;4980925;28;20517;-44
2022/04/17 00:40:22;;;;;;;5.75;2.70;;;10.30;37.30;;;;;;4980905;28;20046;-44
2022/04/17 00:42:53;;;;;;;7.38;3.28;;;10.30;37.30;;;;;;4979979;28;20057;-44
2022/04/17 00:45:20;;;;;;;8.45;3.00;;;10.20;37.40;;;;;;4982647;28;20062;-43
2022/04/17 00:47:48;;;;;;;7.22;3.17;;;10.20;37.50;;;;;;4980686;28;20054;-43
2022/04/17 00:50:15;;;;;;;6.47;3.08;;;10.20;37.60;;;;;;4981703;28;20498;-45
2022/04/17 00:52:44;;;;;;;4.03;2.53;;;10.10;37.70;;;;;;4980180;28;20433;-43
2022/04/17 00:55:12;;;;;;;5.18;2.70;;;10.10;37.80;;;;;;4978089;28;20414;-45
2022/04/17 00:57:42;;;;;;;5.95;2.88;;;10.10;37.90;;;;;;4981835;28;20058;-44
2022/04/17 01:00:19;;;;;;;4.40;2.58;;;10.00;38.00;;;;;;4981777;28;20054;-44
2022/04/17 01:02:46;;;;;;;6.38;2.97;;;9.90;38.20;;;;;;4979197;28;20062;-47
2022/04/17 01:05:13;;;;;;;6.57;3.63;;;9.90;38.20;;;;;;4980273;28;22322;-43
2022/04/17 01:07:41;;;;;;;5.65;3.33;;;9.90;38.30;;;;;;4979380;28;20054;-46
2022/04/17 01:10:09;;;;;;;4.05;2.55;;;9.90;38.40;;;;;;4980197;28;20046;-44
2022/04/17 01:12:37;;;;;;;9.82;3.53;;;9.80;38.40;;;;;;4978078;28;20065;-43
2022/04/17 01:15:06;;;;;;;5.70;2.90;;;9.80;38.50;;;;;;4979388;28;20410;-43
2022/04/17 01:17:35;;;;;;;4.82;2.58;;;9.80;38.70;;;;;;4963810;28;20058;-43
2022/04/17 01:20:03;;;;;;;3.55;2.38;;;9.80;38.70;;;;;;4980598;28;20058;-43
2022/04/17 01:22:32;;;;;;;4.15;3.22;;;9.70;38.80;;;;;;4979294;28;20050;-43
2022/04/17 01:27:45;;;;;;;8.75;3.28;;;9.70;39.10;;;;;;4982326;28;20137;-46
2022/04/17 01:30:15;;;;;;;7.75;3.47;;;9.70;39.20;;;;;;4980589;28;20414;-44
2022/04/17 01:36:05;;;;;;;5.07;2.70;;;9.60;39.40;;;;;;4980814;28;20612;-43
2022/04/17 01:38:34;;;;;;;5.85;2.58;;;9.60;39.20;;;;;;4977806;28;20054;-43
2022/04/17 01:41:01;;;;;;;7.30;2.67;;;9.60;39.40;;;;;;4980798;28;20050;-44
2022/04/17 01:43:28;;;;;;;4.05;2.53;;;9.50;39.50;;;;;;4978710;28;20491;-44
2022/04/17 01:45:56;;;;;;;5.15;3.00;;;9.50;39.70;;;;;;4980390;28;20046;-47
2022/04/17 01:48:23;;;;;;;4.28;2.60;;;9.50;39.80;;;;;;4979041;28;20593;-45
2022/04/17 01:50:51;;;;;;;6.07;2.50;;;9.40;39.80;;;;;;4980706;28;20051;-43
2022/04/17 01:53:18;;;;;;;7.65;2.88;;;9.40;39.90;;;;;;4977006;28;20426;-44
2022/04/17 01:55:47;;;;;;;5.25;2.50;;;9.40;40.10;;;;;;4978748;28;20054;-43
2022/04/17 01:58:14;;;;;;;4.55;2.33;;;9.40;40.10;;;;;;4978670;28;20058;-44
2022/04/17 02:00:42;;;;;;;4.13;2.17;;;9.30;40.00;;;;;;4980013;28;20541;-44
2022/04/17 02:03:10;;;;;;;6.43;3.05;;;9.30;40.20;;;;;;4978763;28;20058;-43
2022/04/17 02:05:37;;;;;;;3.55;2.20;;;9.30;40.30;;;;;;4978679;28;20062;-44
2022/04/17 02:08:06;;;;;;;3.97;2.08;;;9.30;40.30;;;;;;4979948;28;20077;-45
2022/04/17 02:10:33;;;;;;;3.30;1.95;;;9.30;40.20;;;;;;4980133;28;20501;-44
2022/04/17 02:13:02;;;;;;;6.03;2.25;;;9.30;40.20;;;;;;4977849;28;20058;-44
2022/04/17 02:15:29;;;;;;;2.53;1.88;;;9.30;40.20;;;;;;4979876;28;20050;-46
2022/04/17 02:17:57;;;;;;;4.78;2.15;;;9.30;40.20;;;;;;4980685;28;20054;-44
2022/04/17 02:20:25;;;;;;;5.35;2.05;;;9.20;40.40;;;;;;4981297;28;20067;-46
2022/04/17 02:22:52;;;;;;;4.57;2.28;;;9.20;40.30;;;;;;4978013;28;20054;-45
2022/04/17 02:25:20;;;;;;;3.63;2.30;;;9.20;40.40;;;;;;4979384;28;20050;-43
2022/04/17 02:27:47;;;;;;;4.47;2.53;;;9.20;40.40;;;;;;4980420;28;20434;-43
2022/04/17 02:30:16;;;;;;;3.72;2.33;;;9.20;40.40;;;;;;4981569;28;20065;-43
2022/04/17 02:32:43;;;;;;;5.28;2.15;;;9.20;41.00;;;;;;4978192;28;20084;-43
2022/04/17 02:35:11;;;;;;;5.05;2.45;;;9.10;40.50;;;;;;4979039;28;20388;-44
2022/04/17 02:37:38;;;;;;;2.50;1.73;;;9.10;40.60;;;;;;4979917;28;20414;-44
2022/04/17 02:40:07;;;;;;;2.53;1.70;;;9.10;40.60;;;;;;4978138;28;20054;-43
2022/04/17 02:42:34;;;;;;;6.25;2.30;;;9.10;40.70;;;;;;4977216;28;20422;-44
2022/04/17 02:45:02;;;;;;;3.55;2.30;;;9.10;40.80;;;;;;4979436;28;20498;-44
2022/04/17 02:47:47;;;;;;;4.68;2.30;;;9.10;40.80;;;;;;4979397;28;20051;-43
2022/04/17 02:50:17;;;;;;;3.65;1.92;;;9.00;40.90;;;;;;4979421;28;20066;-44
2022/04/17 02:52:45;;;;;;;4.15;2.67;;;9.00;40.90;;;;;;4977921;28;20073;-45
2022/04/17 02:55:12;;;;;;;4.43;2.40;;;9.00;41.10;;;;;;4978014;28;20050;-44
2022/04/17 02:57:40;;;;;;;7.90;2.65;;;9.00;41.20;;;;;;4979955;28;20065;-44
2022/04/17 03:00:10;;;;;;;5.80;2.38;;;8.90;41.20;;;;;;4979164;28;20062;-45
2022/04/17 03:05:37;;;;;;;3.83;2.30;;;8.90;41.20;;;;;;4977440;28;20050;-44
2022/04/17 03:08:07;;;;;;;3.75;1.77;;;8.90;41.20;;;;;;4979373;28;20062;-44
2022/04/17 03:10:35;;;;;;;3.60;1.73;;;8.80;41.30;;;;;;4979494;28;20914;-45
2022/04/17 03:13:03;;;;;;;5.50;2.38;;;8.80;41.30;;;;;;4979056;28;20062;-44
2022/04/17 03:15:31;;;;;;;4.80;1.92;;;8.80;41.50;;;;;;4982949;28;20058;-44
2022/04/17 03:18:00;;;;;;;4.22;2.22;;;8.80;41.50;;;;;;4982569;28;20061;-44
2022/04/17 03:20:27;;;;;;;5.03;2.55;;;8.70;41.50;;;;;;4982175;28;20050;-44
2022/04/17 03:22:55;;;;;;;3.45;2.25;;;8.70;41.50;;;;;;4976789;28;20061;-44
2022/04/17 03:25:23;;;;;;;4.53;2.45;;;8.70;41.50;;;;;;4979879;28;20047;-44
2022/04/17 03:27:51;;;;;;;6.82;2.92;;;8.60;41.50;;;;;;4977020;28;20760;-44
2022/04/17 03:30:19;;;;;;;3.85;2.10;;;8.60;41.60;;;;;;4978149;28;20057;-44
2022/04/17 03:32:48;;;;;;;5.35;2.15;;;8.50;41.60;;;;;;4976734;28;20065;-44
2022/04/17 03:35:17;;;;;;;3.75;2.13;;;8.50;41.60;;;;;;4977419;28;20065;-44
2022/04/17 03:37:45;;;;;;;4.30;2.20;;;8.50;41.70;;;;;;4978116;28;20069;-45
2022/04/17 03:40:14;;;;;;;2.38;1.92;;;8.50;41.70;;;;;;4976533;28;20057;-44
2022/04/17 03:42:42;;;;;;;4.60;2.10;;;8.40;41.80;;;;;;4979425;28;20067;-46
2022/04/17 03:45:14;;;;;;;3.58;1.85;;;8.40;42.00;;;;;;4977711;28;20410;-44
2022/04/17 03:47:42;;;;;;;2.55;1.90;;;8.40;42.20;;;;;;4975777;28;20058;-44
2022/04/17 03:50:11;;;;;;;3.70;2.42;;;8.40;42.20;;;;;;4976267;28;20054;-44
2022/04/17 03:52:41;;;;;;;3.95;2.05;;;8.30;42.20;;;;;;4976258;28;20077;-46
2022/04/17 03:55:10;;;;;;;3.95;2.10;;;8.30;42.20;;;;;;4976545;28;20062;-45
2022/04/17 03:57:37;;;;;;;7.80;2.22;;;8.30;42.30;;;;;;4975488;28;20054;-43
2022/04/17 04:00:07;;;;;;;4.32;2.33;;;8.30;42.40;;;;;;4975779;28;20065;-43
2022/04/17 04:02:35;;;;;;;5.57;2.30;;;8.30;42.50;;;;;;4976061;28;20545;-43
2022/04/17 04:05:02;;;;;;;2.83;1.98;;;8.30;42.50;;;;;;4968328;28;20156;-44
2022/04/17 04:07:30;;;;;;;3.15;2.05;;;8.20;42.90;;;;;;4959831;28;20058;-44
2022/04/17 04:09:58;;;;;;;4.97;2.00;;;8.30;42.50;;;;;;4968620;28;20485;-48
2022/04/17 04:12:28;;;;;;;2.72;2.00;;;8.20;42.80;;;;;;4963465;28;20053;-47
2022/04/17 04:14:55;;;;;;;5.90;2.50;;;8.20;42.70;;;;;;4968893;28;20062;-44
2022/04/17 04:17:23;;;;;;;15.70;7.38;;;8.20;42.80;;;;;;4960373;28;20414;-44
2022/04/17 04:19:50;;;;;;;9.57;4.10;;;8.20;42.90;;;;;;4972823;28;20054;-44
2022/04/17 04:22:18;;;;;;;4.82;2.55;;;8.20;43.00;;;;;;4966778;28;20494;-44
2022/04/17 04:24:46;;;;;;;4.30;2.58;;;8.10;42.90;;;;;;4971210;28;20073;-44
2022/04/17 04:29:59;;;;;;;3.80;2.47;;;8.10;42.90;;;;;;4975037;28;20051;-44
2022/04/17 04:32:27;;;;;;;5.18;2.53;;;8.10;42.90;;;;;;4966959;28;20501;-44
2022/04/17 04:34:59;;;;;;;7.43;2.45;;;8.10;43.00;;;;;;4970245;28;20062;-48
2022/04/17 04:37:27;;;;;;;5.00;1.90;;;8.10;43.20;;;;;;4967276;28;20070;-45
2022/04/17 04:39:55;;;;;;;4.80;2.42;;;8.00;43.10;;;;;;4976244;28;21261;-45
2022/04/17 04:42:24;;;;;;;3.67;1.88;;;8.00;43.00;;;;;;4965705;28;20486;-44
2022/04/17 04:46:06;;;;;;;5.05;2.17;;;8.00;43.00;;;;;;4966383;28;20058;-44
2022/04/17 04:47:38;;;;;;;6.13;1.92;;;8.00;43.00;;;;;;4965610;28;20117;-44
2022/04/17 04:50:06;;;;;;;3.90;1.77;;;8.00;43.00;;;;;;4967427;28;20058;-44
2022/04/17 04:52:36;;;;;;;2.13;1.50;;;8.00;43.10;;;;;;4966991;28;20403;-44
2022/04/17 04:55:05;;;;;;;2.80;1.50;;;8.00;43.20;;;;;;4965684;28;20066;-44
2022/04/17 04:57:36;;;;;;;3.67;1.98;;;8.00;43.20;;;;;;4966661;28;20061;-46
2022/04/17 05:00:05;;;;;;;3.65;1.75;;;8.00;43.40;;;;;;4965339;28;20073;-43
2022/04/17 05:02:34;;;;;;;7.07;3.60;;;8.00;43.50;;;;;;4964106;28;20051;-44
2022/04/17 05:05:02;;;;;;;13.73;6.82;;;8.00;43.70;;;;;;4968255;28;20050;-44
2022/04/17 05:07:29;;;;;;;12.88;3.95;;;8.00;43.70;;;;;;4969165;28;20427;-44
2022/04/17 05:09:57;;;;;;;5.93;2.60;;;8.00;43.80;;;;;;4971793;28;20065;-43
2022/04/17 05:12:24;;;;;;;3.22;2.00;;;8.10;44.20;;;;;;4968442;28;20450;-44
2022/04/17 05:14:53;;;;;;;3.08;1.90;;;8.10;44.00;;;;;;4971076;28;20490;-44
2022/04/17 05:17:20;;;;;;;3.97;1.80;;;8.00;43.90;;;;;;4968359;28;20093;-46
2022/04/17 05:19:50;;;;;;;3.30;1.60;;;8.10;44.00;;;;;;4976518;28;20066;-44
2022/04/17 05:22:20;;;;;;;4.15;1.75;;;8.10;44.00;;;;;;4968657;28;20047;-43
2022/04/17 05:24:47;;;;;;;3.10;1.67;;;8.10;44.20;;;;;;4962170;28;20054;-44
2022/04/17 05:27:15;;;;;;;3.95;1.73;;;8.20;44.30;;;;;;4960498;28;20069;-44
2022/04/17 05:29:43;;;;;;;5.93;1.83;;;8.20;44.40;;;;;;4958663;28;20752;-44
2022/04/17 05:32:12;;;;;;;4.10;1.85;;;8.20;44.40;;;;;;4968175;28;20061;-48
2022/04/17 05:34:40;;;;;;;4.20;1.73;;;8.30;44.40;;;;;;4965821;28;20047;-46
2022/04/17 05:37:08;;;;;;;6.05;1.50;;;8.30;44.40;;;;;;4972289;28;20050;-44
2022/04/17 05:39:36;;;;;;;4.93;1.80;;;8.40;44.40;;;;;;4962803;28;20054;-44
2022/04/17 05:42:05;;;;;;;3.15;1.67;;;8.40;44.50;;;;;;4962567;28;20077;-45
2022/04/17 05:44:33;;;;;;;3.47;1.60;;;8.50;44.60;;;;;;4960016;28;20054;-45
2022/04/17 05:47:00;;;;;;;3.50;1.98;;;8.50;44.50;;;;;;4967466;28;20534;-47
2022/04/17 05:49:31;;;;;;;3.25;1.70;;;8.60;44.50;;;;;;4964120;28;20050;-47
2022/04/17 05:52:00;;;;;;;4.80;1.73;;;8.60;44.60;;;;;;4972256;28;20042;-46
2022/04/17 05:54:29;;;;;;;5.43;2.28;;;8.70;44.70;;;;;;4969975;28;20073;-44
2022/04/17 05:56:57;;;;;;;3.60;1.77;;;8.70;45.20;;;;;;4965455;28;20070;-45
2022/04/17 05:59:25;;;;;;;6.60;2.08;;;8.80;44.90;;;;;;4969506;28;20070;-44
2022/04/17 06:01:53;;;;;;;6.38;2.00;;;8.90;44.80;;;;;;4958880;28;20055;-44
2022/04/17 06:04:20;;;;;;;4.47;1.67;;;8.90;44.60;;;;;;4975331;28;20054;-44
2022/04/17 06:06:50;;;;;;;3.00;1.70;;;9.00;44.60;;;;;;4967522;28;20054;-47
2022/04/17 06:09:17;;;;;;;4.47;2.00;;;9.00;44.60;;;;;;4966267;28;20081;-44
2022/04/17 06:11:45;;;;;;;6.05;2.00;;;9.10;44.70;;;;;;4960496;28;20560;-44
2022/04/17 06:14:12;;;;;;;4.38;2.00;;;9.20;44.60;;;;;;4969651;28;20050;-44
2022/04/17 06:16:40;;;;;;;5.05;1.92;;;9.30;44.50;;;;;;4969091;28;20068;-44
2022/04/17 06:19:09;;;;;;;4.75;2.40;;;9.30;44.50;;;;;;4969956;28;20069;-46
2022/04/17 06:21:37;;;;;;;4.78;1.65;;;9.40;44.50;;;;;;4961526;28;20050;-46
2022/04/17 06:24:06;;;;;;;7.15;2.17;;;9.50;44.60;;;;;;4969752;28;20059;-44
2022/04/17 06:26:34;;;;;;;5.13;2.22;;;9.50;44.70;;;;;;4970656;28;20065;-44
2022/04/17 06:29:05;;;;;;;4.22;1.70;;;9.60;44.80;;;;;;4967620;28;20066;-44
2022/04/17 06:31:33;;;;;;;6.00;2.13;;;9.60;44.80;;;;;;4965929;28;20066;-47
2022/04/17 06:34:00;;;;;;;4.32;1.83;;;9.70;44.90;;;;;;4967182;28;20047;-44
2022/04/17 06:36:28;;;;;;;8.20;1.85;;;9.80;44.60;;;;;;4965363;28;20058;-44
2022/04/17 06:38:56;;;;;;;2.80;1.73;;;9.90;44.60;;;;;;4972323;28;20054;-44
2022/04/17 06:41:25;;;;;;;4.50;1.70;;;9.90;44.60;;;;;;4968847;28;20528;-43
2022/04/17 06:43:52;;;;;;;6.18;1.65;;;10.00;44.80;;;;;;4971527;28;20061;-44
2022/04/17 06:46:19;;;;;;;4.50;1.65;;;10.10;44.80;;;;;;4972721;28;20058;-44
2022/04/17 06:48:47;;;;;;;3.00;1.85;;;10.20;44.60;;;;;;4967745;28;20057;-44
2022/04/17 06:51:15;;;;;;;7.13;2.10;;;10.20;44.40;;;;;;4970251;28;21262;-43
2022/04/17 06:53:42;;;;;;;9.95;3.80;;;10.30;44.40;;;;;;4964671;28;20062;-44
2022/04/17 06:56:12;;;;;;;33.38;14.05;;;10.40;44.80;;;;;;4968511;28;20062;-44
2022/04/17 06:58:41;;;;;;;9.05;3.80;;;10.50;44.90;;;;;;4970852;28;20390;-44
2022/04/17 07:01:08;;;;;;;5.72;2.13;;;10.50;44.80;;;;;;4970684;28;20065;-44
2022/04/17 07:03:36;;;;;;;6.18;2.20;;;10.60;44.30;;;;;;4964753;28;20055;-44
2022/04/17 07:06:03;;;;;;;5.10;1.90;;;10.70;44.60;;;;;;4965447;28;20074;-44
2022/04/17 07:08:31;;;;;;;4.13;1.80;;;10.80;44.00;;;;;;4967680;28;20498;-44
2022/04/17 07:10:58;;;;;;;5.82;1.88;;;10.90;44.10;;;;;;4964270;28;20059;-48
2022/04/17 07:13:26;;;;;;;3.58;1.67;;;10.90;43.80;;;;;;4968518;28;20487;-44
2022/04/17 07:15:55;;;;;;;3.92;1.70;;;11.00;44.00;;;;;;4970999;28;20054;-43
2022/04/17 07:18:22;;;;;;;3.83;1.90;;;11.10;43.70;;;;;;4973985;28;20376;-44
2022/04/17 07:20:50;;;;;;;5.75;1.60;;;11.20;43.70;;;;;;4970354;28;20414;-44
2022/04/17 07:23:18;;;;;;;6.68;2.03;;;11.30;43.70;;;;;;4967401;28;20413;-45
2022/04/17 07:25:45;;;;;;;2.50;1.58;;;11.40;43.60;;;;;;4972766;28;20059;-44
2022/04/17 07:28:14;;;;;;;5.18;1.95;;;11.50;43.70;;;;;;4973641;28;20398;-44
2022/04/17 07:30:41;;;;;;;3.05;1.63;;;11.50;43.50;;;;;;4975598;28;20065;-44
2022/04/17 07:33:10;;;;;;;6.78;2.15;;;11.60;43.40;;;;;;4969601;28;20058;-44
2022/04/17 07:35:38;;;;;;;4.53;1.92;;;11.60;43.10;;;;;;4971022;28;20054;-44
2022/04/17 07:38:06;;;;;;;3.63;1.50;;;11.70;43.30;;;;;;4968897;28;20054;-44
2022/04/17 07:40:35;;;;;;;3.60;1.50;;;11.80;43.10;;;;;;4973402;28;20380;-44
2022/04/17 07:43:04;;;;;;;5.78;1.85;;;11.90;42.70;;;;;;4964431;28;20051;-44
2022/04/17 07:45:33;;;;;;;4.88;1.98;;;12.00;42.40;;;;;;4972086;28;20069;-45
2022/04/17 07:48:01;;;;;;;4.38;1.85;;;12.00;41.70;;;;;;4968148;28;20061;-44
2022/04/17 07:50:31;;;;;;;4.90;2.42;;;12.10;41.70;;;;;;4966146;28;20050;-46
2022/04/17 07:52:59;;;;;;;10.15;3.85;;;12.20;42.00;;;;;;4960706;28;20062;-46
2022/04/17 07:55:28;;;;;;;5.30;2.92;;;12.20;42.30;;;;;;4963236;28;20599;-44
2022/04/17 07:58:07;;;;;;;4.60;1.90;;;12.30;42.30;;;;;;4973220;28;20050;-45
2022/04/17 08:00:44;;;;;;;4.15;1.80;;;12.40;42.30;;;;;;4971094;28;20058;-44
2022/04/17 08:03:20;;;;;;;2.30;1.40;;;12.40;41.90;;;;;;4969408;28;20055;-44
2022/04/17 08:05:50;;;;;;;4.15;1.60;;;12.50;41.70;;;;;;4968722;28;20051;-46
2022/04/17 08:08:18;;;;;;;4.20;2.30;;;12.60;41.80;;;;;;4967857;28;20395;-45
2022/04/17 08:10:46;;;;;;;8.10;1.85;;;12.60;41.40;;;;;;4971302;28;20495;-44
2022/04/17 08:13:13;;;;;;;5.15;1.90;;;12.70;41.00;;;;;;4969471;28;20055;-44
2022/04/17 08:15:41;;;;;;;7.72;2.13;;;12.80;41.00;;;;;;4974553;28;21167;-44
2022/04/17 08:18:09;;;;;;;3.80;1.55;;;12.80;41.00;;;;;;4971787;28;20070;-44
2022/04/17 08:20:36;;;;;;;3.08;1.55;;;12.90;41.40;;;;;;4965865;28;20058;-46
2022/04/17 08:23:05;;;;;;;6.43;1.73;;;12.90;41.40;;;;;;4966799;28;20054;-45
2022/04/17 08:25:33;;;;;;;6.70;1.83;;;13.00;41.00;;;;;;4969644;28;20054;-44
2022/04/17 08:28:02;;;;;;;4.60;1.75;;;13.00;41.00;;;;;;4966345;28;20533;-44
2022/04/17 08:30:31;;;;;;;2.63;1.60;;;13.10;40.90;;;;;;4977029;28;20062;-44
2022/04/17 08:32:59;;;;;;;8.05;1.90;;;13.10;40.30;;;;;;4958442;28;20053;-45
2022/04/17 08:35:27;;;;;;;5.82;1.63;;;13.20;40.80;;;;;;4975881;28;20426;-47
2022/04/17 08:37:57;;;;;;;4.57;1.83;;;13.20;40.90;;;;;;4979768;28;20054;-47
2022/04/17 08:40:27;;;;;;;3.22;1.50;;;13.30;40.90;;;;;;4982137;28;20104;-45
2022/04/17 08:42:55;;;;;;;3.42;1.58;;;13.30;40.10;;;;;;4979594;28;20057;-44
2022/04/17 08:45:24;;;;;;;3.92;1.30;;;13.40;39.80;;;;;;4982898;28;20061;-48
2022/04/17 08:47:53;;;;;;;5.35;2.10;;;13.50;39.60;;;;;;4982252;28;20058;-46
2022/04/17 08:50:21;;;;;;;3.42;1.95;;;13.50;39.80;;;;;;4982664;28;20421;-46
2022/04/17 08:52:52;;;;;;;6.18;2.00;;;13.60;40.00;;;;;;4977893;28;20526;-47
2022/04/17 08:55:19;;;;;;;4.88;1.90;;;13.60;39.80;;;;;;4981007;28;20418;-45
2022/04/17 08:57:48;;;;;;;2.78;1.40;;;13.70;39.80;;;;;;4982836;28;20514;-44
2022/04/17 09:00:17;;;;;;;7.93;2.28;;;13.70;39.10;;;;;;4979983;28;20066;-44
2022/04/17 09:02:46;;;;;;;5.47;1.80;;;13.70;39.00;;;;;;4978172;28;20073;-44
2022/04/17 09:05:15;;;;;;;4.55;1.65;;;13.80;38.50;;;;;;4979173;28;20058;-44
2022/04/17 09:07:44;;;;;;;2.88;1.38;;;13.80;38.60;;;;;;4982105;28;20494;-45
2022/04/17 09:10:23;;;;;;;4.05;1.70;;;13.90;38.40;;;;;;4980732;28;20082;-44
2022/04/17 09:12:54;;;;;;;3.72;1.45;;;13.90;38.70;;;;;;4977812;28;20058;-44
2022/04/17 09:15:24;;;;;;;2.35;1.63;;;14.00;38.10;;;;;;4981986;28;20065;-44
2022/04/17 09:17:52;;;;;;;2.60;1.38;;;14.00;37.60;;;;;;4982847;28;20065;-45
2022/04/17 09:20:22;;;;;;;3.63;1.50;;;14.10;38.80;;;;;;4981510;28;20059;-44
2022/04/17 09:22:51;;;;;;;3.40;1.50;;;14.10;38.90;;;;;;4978179;28;20054;-47
2022/04/17 09:25:19;;;;;;;4.82;2.13;;;14.20;38.80;;;;;;4980294;28;20120;-44
2022/04/17 09:27:58;;;;;;;2.60;1.40;;;14.20;38.60;;;;;;4981270;28;20073;-45
2022/04/17 09:30:28;;;;;;;3.97;1.95;;;14.20;38.40;;;;;;4981066;28;20069;-44
2022/04/17 09:32:56;;;;;;;3.08;1.42;;;14.30;38.40;;;;;;4977142;28;20051;-46
2022/04/17 09:35:24;;;;;;;3.25;1.40;;;14.30;38.60;;;;;;4980937;28;20077;-45
2022/04/17 09:37:56;;;;;;;4.57;1.40;;;14.40;38.30;;;;;;4977509;28;20058;-45
2022/04/17 09:40:24;;;;;;;5.07;1.52;;;14.40;38.40;;;;;;4980882;28;20054;-44
2022/04/17 09:43:07;;;;;;;4.32;1.10;;;14.40;38.30;;;;;;4977929;28;20054;-44
2022/04/17 09:45:57;;;;;;;2.58;1.42;;;14.50;38.40;;;;;;4980580;28;20058;-44
2022/04/17 09:48:25;;;;;;;3.22;1.35;;;14.50;38.70;;;;;;4981431;28;20054;-45
2022/04/17 09:50:52;;;;;;;3.53;1.38;;;14.60;38.80;;;;;;4979968;28;20058;-44
2022/04/17 09:53:36;;;;;;;3.65;1.40;;;14.60;38.70;;;;;;4979405;28;20054;-44
2022/04/17 09:56:11;;;;;;;2.83;1.35;;;14.70;38.40;;;;;;4979834;28;20054;-44
2022/04/17 09:58:39;;;;;;;3.83;1.70;;;14.80;38.10;;;;;;4979066;28;20058;-44
2022/04/17 10:01:09;;;;;;;5.47;1.05;;;14.80;38.10;;;;;;4980963;28;20058;-44
2022/04/17 10:03:38;;;;;;;3.65;1.15;;;14.90;38.40;;;;;;4979921;28;20081;-44
2022/04/17 10:06:07;;;;;;;3.47;1.52;;;14.90;38.40;;;;;;4981323;28;20054;-45
2022/04/17 10:08:34;;;;;;;3.63;1.20;;;15.00;38.00;;;;;;4981528;28;20050;-44
2022/04/17 10:11:03;;;;;;;4.03;1.30;;;15.00;38.20;;;;;;4978770;28;20441;-45
2022/04/17 10:13:32;;;;;;;4.22;1.23;;;15.00;38.10;;;;;;4979104;28;20058;-44
2022/04/17 10:16:01;;;;;;;1.67;1.08;;;15.10;37.90;;;;;;4979244;28;20050;-45
2022/04/17 10:18:34;;;;;;;2.78;1.33;;;15.10;38.10;;;;;;4982017;28;20054;-44
2022/04/17 10:21:04;;;;;;;3.22;1.40;;;15.10;38.60;;;;;;4981334;28;20065;-47
2022/04/17 10:23:33;;;;;;;3.28;1.38;;;15.10;38.00;;;;;;4978208;28;20062;-44
2022/04/17 10:26:04;;;;;;;3.35;1.13;;;15.20;37.10;;;;;;4984173;28;20069;-44
2022/04/17 10:28:38;;;;;;;5.07;1.20;;;15.20;36.70;;;;;;4982518;28;20065;-44
2022/04/17 10:31:14;;;;;;;;;;;15.20;37.30;;;;;;4982855;28;20505;-44
2022/04/17 10:34:06;;;;;;;1.77;1.13;;;15.30;37.50;;;;;;4983009;28;19933;-44
2022/04/17 10:36:48;;;;;;;2.70;1.30;;;15.40;37.60;;;;;;4981571;28;20058;-45
2022/04/17 10:39:20;;;;;;;5.38;1.45;;;15.40;37.50;;;;;;4985159;28;20414;-44
2022/04/17 10:41:47;;;;;;;2.38;1.00;;;15.40;36.90;;;;;;4980269;28;20065;-44
2022/04/17 10:44:16;;;;;;;1.63;1.13;;;15.50;37.20;;;;;;4984374;28;20509;-44
2022/04/17 10:46:50;;;;;;;2.25;0.93;;;15.50;37.30;;;;;;4983410;28;20062;-44
2022/04/17 10:49:20;;;;;;;2.00;0.90;;;15.50;37.00;;;;;;4984752;28;20061;-45
2022/04/17 10:51:52;;;;;;;2.67;1.00;;;15.60;37.10;;;;;;4979392;28;20050;-44
2022/04/17 10:54:19;;;;;;;3.30;1.10;;;15.60;37.30;;;;;;4983679;28;20525;-44
2022/04/17 10:57:01;;;;;;;2.17;1.10;;;15.70;37.10;;;;;;4983588;28;20410;-43
2022/04/17 10:59:30;;;;;;;3.67;1.33;;;15.70;36.60;;;;;;4984831;28;20058;-44
2022/04/17 11:02:03;;;;;;;1.45;0.80;;;15.70;36.30;;;;;;4981475;28;20065;-45
2022/04/17 11:04:39;;;;;;;2.10;1.00;;;15.70;35.70;;;;;;4984311;28;20062;-45
2022/04/17 11:07:31;;;;;;;2.90;1.10;;;15.80;36.20;;;;;;4980458;28;20054;-44
2022/04/17 11:10:23;;;;;;;1.90;0.90;;;15.80;36.40;;;;;;4975577;28;20055;-44
2022/04/17 11:12:52;;;;;;;6.18;1.48;;;15.80;36.60;;;;;;4973189;28;20494;-44
2022/04/17 11:15:28;;;;;;;4.30;1.23;;;15.90;36.80;;;;;;4980555;28;20057;-44
2022/04/17 11:18:01;;;;;;;4.93;1.63;;;15.90;36.70;;;;;;4983350;28;20058;-44
2022/04/17 11:20:31;;;;;;;2.58;1.10;;;15.90;35.50;;;;;;4973829;28;20426;-44
2022/04/17 11:22:59;;;;;;;1.95;0.85;;;16.00;36.00;;;;;;4974898;28;20062;-47
2022/04/17 11:25:29;;;;;;;2.28;0.75;;;16.10;36.30;;;;;;4972405;28;20057;-44
2022/04/17 11:28:02;;;;;;;2.10;0.90;;;16.20;36.00;;;;;;4972836;28;20054;-48
2022/04/17 11:30:36;;;;;;;2.28;1.00;;;16.20;36.30;;;;;;4981886;28;20050;-44
2022/04/17 11:33:04;;;;;;;;;;;16.30;35.60;;;;;;4980626;28;20364;-44
2022/04/17 11:35:33;;;;;;;2.35;0.90;;;16.40;35.60;;;;;;4971881;28;20309;-49
2022/04/17 11:38:03;;;;;;;2.67;1.10;;;16.40;35.70;;;;;;4978766;28;20498;-44
2022/04/17 11:40:33;;;;;;;2.15;0.90;;;16.50;35.10;;;;;;4980476;28;20050;-44
2022/04/17 11:43:12;;;;;;;3.78;1.20;;;16.50;34.90;;;;;;4979937;28;20050;-45
2022/04/17 11:45:42;;;;;;;2.30;0.77;;;16.50;34.30;;;;;;4976402;28;20491;-46
2022/04/17 11:48:11;;;;;;;2.00;1.00;;;16.60;34.20;;;;;;4974286;28;20491;-45
2022/04/17 11:50:41;;;;;;;4.43;1.48;;;16.60;33.70;;;;;;4982132;28;20418;-44
2022/04/17 11:53:13;;;;;;;2.10;0.95;;;16.60;33.70;;;;;;4978395;28;20081;-44
2022/04/17 11:55:42;;;;;;;1.58;0.80;;;16.70;34.00;;;;;;4981909;28;20391;-44
2022/04/17 11:58:11;;;;;;;2.30;0.82;;;16.70;34.10;;;;;;4981513;28;20061;-44
2022/04/17 12:00:39;;;;;;;1.98;1.00;;;16.70;33.50;;;;;;4976845;28;20054;-44
2022/04/17 12:03:09;;;;;;;2.78;0.95;;;16.80;33.80;;;;;;4978795;28;20054;-45
2022/04/17 12:05:39;;;;;;;1.08;0.80;;;16.80;33.90;;;;;;4975017;28;20051;-44
2022/04/17 12:08:09;;;;;;;3.50;0.98;;;16.90;33.90;;;;;;4969246;28;20061;-46
2022/04/17 12:10:38;;;;;;;2.67;0.93;;;16.90;33.60;;;;;;4970023;28;20513;-44
2022/04/17 12:13:14;;;;;;;3.80;1.25;;;16.90;34.10;;;;;;4970135;28;20383;-46
2022/04/17 12:15:42;;;;;;;1.70;0.98;;;16.90;34.20;;;;;;4979666;28;20054;-44
2022/04/17 12:18:09;;;;;;;2.13;0.85;;;16.90;34.10;;;;;;4979423;28;20058;-44
2022/04/17 12:20:38;;;;;;;1.42;0.90;;;17.00;33.30;;;;;;4971476;28;20058;-44
2022/04/17 12:23:08;;;;;;;2.75;1.00;;;17.00;33.50;;;;;;4965991;28;20058;-44
2022/04/17 12:25:37;;;;;;;1.50;0.80;;;17.00;32.90;;;;;;4973199;28;20073;-45
2022/04/17 12:28:05;;;;;;;2.25;0.80;;;17.10;33.20;;;;;;4982378;28;20418;-44
2022/04/17 12:30:33;;;;;;;2.15;1.10;;;17.10;32.90;;;;;;4980077;28;20058;-44
2022/04/17 12:33:00;;;;;;;1.33;0.98;;;17.10;33.00;;;;;;4981172;28;20534;-44
2022/04/17 12:35:29;;;;;;;1.45;0.80;;;17.10;33.00;;;;;;4978350;28;20513;-45
2022/04/17 12:38:10;;;;;;;4.50;1.00;;;17.10;32.40;;;;;;4977227;28;20058;-44
2022/04/17 12:40:42;;;;;;;2.38;0.90;;;17.10;32.90;;;;;;4974863;28;20070;-44
2022/04/17 12:43:17;;;;;;;1.25;0.85;;;17.20;32.80;;;;;;4972760;28;20065;-44
2022/04/17 12:45:56;;;;;;;1.52;0.80;;;17.20;32.40;;;;;;4979057;28;20054;-44
2022/04/17 12:48:32;;;;;;;3.35;0.93;;;17.30;32.70;;;;;;4980822;28;20058;-44
2022/04/17 12:51:02;;;;;;;1.52;0.70;;;17.30;32.60;;;;;;4973657;28;20054;-44
2022/04/17 12:53:37;;;;;;;2.40;0.95;;;17.30;32.80;;;;;;4975973;28;20046;-44
2022/04/17 12:56:06;;;;;;;3.13;0.82;;;17.30;32.50;;;;;;4974988;28;20418;-46
2022/04/17 12:58:50;;;;;;;1.63;0.82;;;17.40;32.60;;;;;;4980280;28;20062;-44
2022/04/17 13:01:20;;;;;;;2.30;1.20;;;17.40;32.40;;;;;;4976554;28;20054;-44
2022/04/17 13:03:48;;;;;;;3.00;1.00;;;17.30;32.40;;;;;;4977655;28;20430;-44
2022/04/17 13:06:21;;;;;;;1.77;0.70;;;17.40;32.60;;;;;;4979286;28;20050;-44
2022/04/17 13:09:12;;;;;;;1.67;0.80;;;17.40;32.80;;;;;;4967653;28;20050;-44
2022/04/17 13:11:42;;;;;;;2.22;0.80;;;17.40;32.60;;;;;;4978448;28;20410;-44
2022/04/17 13:14:10;;;;;;;1.75;0.60;;;17.40;32.50;;;;;;4980702;28;20083;-43